MMCE

Ciudad del Carmen International Airport

Ciudad del Carmen, Mexico
TAF MMCE 200510Z 2006/2106 30008KT P6SM SCT250 TEMPO 2010/2014 3SM -RA BR BKN012 FM201800 35015KT P6SM BKN030 BKN250 FM210500 31006KT P6SM SCT020 SCT250
Issued Valid From Valid To
Jan-20 @ 05:10 UTC
(6 hours ago)
Jan-20 @ 06:00 UTC
(5 hours ago)
Jan-21 @ 06:00 UTC
(in 19 hours)
Jan-20 @ 06:00 to Jan-20 @ 18:00
TAF MMCE 200510Z 2006/2106 30008KT P6SM SCT250
Wind Visibility Clouds
300° at 8 knots Greater than 6 miles
  • Scattered at 25,000' AGL
Temporary Jan-20 @ 10:00 to Jan-20 @ 14:00
TEMPO 2010/2014 3SM -RA BR BKN012
Visibility Clouds Conditions
3 miles
  • Broken at 1,200' AGL
  • Light Rain
  • Mist
From Jan-20 @ 18:00 to Jan-21 @ 05:00
FM201800 35015KT P6SM BKN030 BKN250
Wind Visibility Clouds
350° at 15 knots Greater than 6 miles
  • Broken at 3,000' AGL
  • Broken at 25,000' AGL
From Jan-21 @ 05:00 to Jan-21 @ 06:00
FM210500 31006KT P6SM SCT020 SCT250
Wind Visibility Clouds
310° at 6 knots Greater than 6 miles
  • Scattered at 2,000' AGL
  • Scattered at 25,000' AGL
TAF MMCE 200510Z 2006/2106 30008KT P6SM SCT250 TEMPO 2010/2014 3SM -RA BR BKN012 FM201800 35015KT P6SM BKN030 BKN250 FM210500 31006KT P6SM SCT020 SCT250
Issued Jan-20 @ 05:10 UTC
(6 hours ago)
Valid From Jan-20 @ 06:00 UTC
(5 hours ago)
Valid To Jan-21 @ 06:00 UTC
(in 19 hours)
Jan-20 @ 06:00 - Jan-20 @ 18:00
Wind Visibility
300° at 8 knots Greater than 6 miles
Clouds
  • Scattered at 25,000' AGL
Temporary Jan-20 @ 10:00 - Jan-20 @ 14:00
Clouds
  • Broken at 1,200' AGL
Conditions
  • Light Rain
  • Mist
From Jan-20 @ 18:00 - Jan-21 @ 05:00
Wind Visibility
350° at 15 knots Greater than 6 miles
Clouds
  • Broken at 3,000' AGL
  • Broken at 25,000' AGL
From Jan-21 @ 05:00 - Jan-21 @ 06:00
Wind Visibility
310° at 6 knots Greater than 6 miles
Clouds
  • Scattered at 2,000' AGL
  • Scattered at 25,000' AGL